sensor_id;sensor_type;location;lat;lon;timestamp;P1;durP1;ratioP1;P2;durP2;ratioP2
14092;SDS011;7123;49.468;10.992;2023-11-21T00:01:22;1.10;;;0.90;;
14092;SDS011;7123;49.468;10.992;2023-11-21T00:03:49;0.90;;;0.90;;
14092;SDS011;7123;49.468;10.992;2023-11-21T00:06:16;3.70;;;0.80;;
14092;SDS011;7123;49.468;10.992;2023-11-21T00:08:44;0.93;;;0.70;;
14092;SDS011;7123;49.468;10.992;2023-11-21T00:11:11;2.13;;;1.00;;
14092;SDS011;7123;49.468;10.992;2023-11-21T00:13:38;1.00;;;0.90;;
14092;SDS011;7123;49.468;10.992;2023-11-21T00:16:05;1.10;;;1.00;;
14092;SDS011;7123;49.468;10.992;2023-11-21T00:18:33;1.40;;;1.17;;
14092;SDS011;7123;49.468;10.992;2023-11-21T00:21:00;0.83;;;0.83;;
14092;SDS011;7123;49.468;10.992;2023-11-21T00:23:27;1.00;;;0.90;;
14092;SDS011;7123;49.468;10.992;2023-11-21T00:25:54;1.57;;;1.00;;
14092;SDS011;7123;49.468;10.992;2023-11-21T00:28:21;2.53;;;1.10;;
14092;SDS011;7123;49.468;10.992;2023-11-21T00:30:48;0.73;;;0.73;;
14092;SDS011;7123;49.468;10.992;2023-11-21T00:33:15;1.63;;;1.03;;
14092;SDS011;7123;49.468;10.992;2023-11-21T00:35:42;1.97;;;0.80;;
14092;SDS011;7123;49.468;10.992;2023-11-21T00:38:09;1.57;;;1.00;;
14092;SDS011;7123;49.468;10.992;2023-11-21T00:40:36;1.20;;;1.10;;
14092;SDS011;7123;49.468;10.992;2023-11-21T00:43:04;1.03;;;0.80;;
14092;SDS011;7123;49.468;10.992;2023-11-21T00:45:31;1.17;;;0.80;;
14092;SDS011;7123;49.468;10.992;2023-11-21T00:47:58;1.67;;;0.80;;
14092;SDS011;7123;49.468;10.992;2023-11-21T00:50:25;1.87;;;0.93;;
14092;SDS011;7123;49.468;10.992;2023-11-21T00:52:52;0.70;;;0.60;;
14092;SDS011;7123;49.468;10.992;2023-11-21T00:55:19;1.47;;;1.00;;
14092;SDS011;7123;49.468;10.992;2023-11-21T00:57:46;1.33;;;0.80;;
14092;SDS011;7123;49.468;10.992;2023-11-21T01:00:12;1.30;;;1.20;;
14092;SDS011;7123;49.468;10.992;2023-11-21T01:02:43;3.40;;;1.47;;
14092;SDS011;7123;49.468;10.992;2023-11-21T01:05:14;2.23;;;1.00;;
14092;SDS011;7123;49.468;10.992;2023-11-21T01:07:40;3.37;;;0.90;;
14092;SDS011;7123;49.468;10.992;2023-11-21T01:10:07;1.20;;;0.83;;
14092;SDS011;7123;49.468;10.992;2023-11-21T01:12:36;1.53;;;0.90;;
14092;SDS011;7123;49.468;10.992;2023-11-21T01:15:04;2.27;;;1.17;;
14092;SDS011;7123;49.468;10.992;2023-11-21T01:17:35;2.83;;;1.27;;
14092;SDS011;7123;49.468;10.992;2023-11-21T01:20:02;3.73;;;1.30;;
14092;SDS011;7123;49.468;10.992;2023-11-21T01:22:32;1.77;;;1.30;;
14092;SDS011;7123;49.468;10.992;2023-11-21T01:24:59;4.33;;;1.17;;
14092;SDS011;7123;49.468;10.992;2023-11-21T01:27:26;1.87;;;1.20;;
14092;SDS011;7123;49.468;10.992;2023-11-21T01:29:53;1.30;;;1.10;;
14092;SDS011;7123;49.468;10.992;2023-11-21T01:32:20;2.23;;;0.90;;
14092;SDS011;7123;49.468;10.992;2023-11-21T01:34:47;2.10;;;1.20;;
14092;SDS011;7123;49.468;10.992;2023-11-21T01:37:15;2.77;;;1.50;;
14092;SDS011;7123;49.468;10.992;2023-11-21T01:39:43;2.10;;;0.87;;
14092;SDS011;7123;49.468;10.992;2023-11-21T01:42:10;2.00;;;0.90;;
14092;SDS011;7123;49.468;10.992;2023-11-21T01:44:39;2.87;;;1.13;;
14092;SDS011;7123;49.468;10.992;2023-11-21T01:47:06;6.10;;;1.10;;
14092;SDS011;7123;49.468;10.992;2023-11-21T01:49:34;3.23;;;1.00;;
14092;SDS011;7123;49.468;10.992;2023-11-21T01:52:01;2.07;;;1.30;;
14092;SDS011;7123;49.468;10.992;2023-11-21T01:54:30;1.67;;;1.00;;
14092;SDS011;7123;49.468;10.992;2023-11-21T01:56:57;2.63;;;0.90;;
14092;SDS011;7123;49.468;10.992;2023-11-21T01:59:30;1.90;;;0.90;;
14092;SDS011;7123;49.468;10.992;2023-11-21T02:02:01;1.27;;;0.90;;
14092;SDS011;7123;49.468;10.992;2023-11-21T02:04:28;2.97;;;1.63;;
14092;SDS011;7123;49.468;10.992;2023-11-21T02:06:54;2.10;;;0.90;;
14092;SDS011;7123;49.468;10.992;2023-11-21T02:09:28;0.97;;;0.83;;
14092;SDS011;7123;49.468;10.992;2023-11-21T02:11:59;0.97;;;0.80;;
14092;SDS011;7123;49.468;10.992;2023-11-21T02:14:26;1.13;;;1.00;;
14092;SDS011;7123;49.468;10.992;2023-11-21T02:16:54;3.07;;;1.10;;
14092;SDS011;7123;49.468;10.992;2023-11-21T02:19:23;1.90;;;1.07;;
14092;SDS011;7123;49.468;10.992;2023-11-21T02:21:52;1.67;;;0.93;;
14092;SDS011;7123;49.468;10.992;2023-11-21T02:24:20;1.30;;;1.00;;
14092;SDS011;7123;49.468;10.992;2023-11-21T02:26:50;2.47;;;0.80;;
14092;SDS011;7123;49.468;10.992;2023-11-21T02:29:18;1.20;;;0.90;;
14092;SDS011;7123;49.468;10.992;2023-11-21T02:31:49;2.53;;;1.20;;
14092;SDS011;7123;49.468;10.992;2023-11-21T02:34:21;3.90;;;0.83;;
14092;SDS011;7123;49.468;10.992;2023-11-21T02:36:49;1.70;;;0.80;;
14092;SDS011;7123;49.468;10.992;2023-11-21T02:39:15;3.03;;;0.90;;
14092;SDS011;7123;49.468;10.992;2023-11-21T02:41:43;2.10;;;0.90;;
14092;SDS011;7123;49.468;10.992;2023-11-21T02:44:10;2.17;;;0.80;;
14092;SDS011;7123;49.468;10.992;2023-11-21T02:46:37;0.70;;;0.60;;
14092;SDS011;7123;49.468;10.992;2023-11-21T02:49:06;2.57;;;1.07;;
14092;SDS011;7123;49.468;10.992;2023-11-21T02:51:33;1.63;;;0.90;;
14092;SDS011;7123;49.468;10.992;2023-11-21T02:54:00;1.40;;;0.97;;
14092;SDS011;7123;49.468;10.992;2023-11-21T02:56:29;0.87;;;0.80;;
14092;SDS011;7123;49.468;10.992;2023-11-21T02:58:55;1.97;;;0.80;;
14092;SDS011;7123;49.468;10.992;2023-11-21T03:01:23;2.33;;;0.90;;
14092;SDS011;7123;49.468;10.992;2023-11-21T03:03:53;0.77;;;0.77;;
14092;SDS011;7123;49.468;10.992;2023-11-21T03:06:21;0.87;;;0.87;;
14092;SDS011;7123;49.468;10.992;2023-11-21T03:08:48;0.80;;;0.80;;
14092;SDS011;7123;49.468;10.992;2023-11-21T03:11:15;2.87;;;0.90;;
14092;SDS011;7123;49.468;10.992;2023-11-21T03:13:42;1.73;;;0.87;;
14092;SDS011;7123;49.468;10.992;2023-11-21T03:16:09;1.53;;;0.80;;
14092;SDS011;7123;49.468;10.992;2023-11-21T03:18:37;3.30;;;1.07;;
14092;SDS011;7123;49.468;10.992;2023-11-21T03:21:05;1.70;;;0.80;;
14092;SDS011;7123;49.468;10.992;2023-11-21T03:23:33;1.20;;;0.90;;
14092;SDS011;7123;49.468;10.992;2023-11-21T03:26:01;0.80;;;0.80;;
14092;SDS011;7123;49.468;10.992;2023-11-21T03:28:28;1.90;;;1.23;;
14092;SDS011;7123;49.468;10.992;2023-11-21T03:30:56;1.33;;;0.80;;
14092;SDS011;7123;49.468;10.992;2023-11-21T03:33:23;1.83;;;1.00;;
14092;SDS011;7123;49.468;10.992;2023-11-21T03:35:50;1.40;;;1.00;;
14092;SDS011;7123;49.468;10.992;2023-11-21T03:38:16;2.27;;;0.97;;
14092;SDS011;7123;49.468;10.992;2023-11-21T03:40:43;2.70;;;1.23;;
14092;SDS011;7123;49.468;10.992;2023-11-21T03:43:10;0.80;;;0.80;;
14092;SDS011;7123;49.468;10.992;2023-11-21T03:45:37;3.20;;;0.87;;
14092;SDS011;7123;49.468;10.992;2023-11-21T03:48:03;1.80;;;1.10;;
14092;SDS011;7123;49.468;10.992;2023-11-21T03:50:31;1.27;;;1.17;;
14092;SDS011;7123;49.468;10.992;2023-11-21T03:52:57;3.20;;;1.00;;
14092;SDS011;7123;49.468;10.992;2023-11-21T03:55:24;2.60;;;1.03;;
14092;SDS011;7123;49.468;10.992;2023-11-21T03:57:52;2.17;;;1.13;;
14092;SDS011;7123;49.468;10.992;2023-11-21T04:00:18;2.67;;;1.30;;
14092;SDS011;7123;49.468;10.992;2023-11-21T04:02:48;2.07;;;0.90;;
14092;SDS011;7123;49.468;10.992;2023-11-21T04:05:17;1.10;;;1.00;;
14092;SDS011;7123;49.468;10.992;2023-11-21T04:07:43;1.40;;;1.20;;
14092;SDS011;7123;49.468;10.992;2023-11-21T04:10:10;3.23;;;1.47;;
14092;SDS011;7123;49.468;10.992;2023-11-21T04:12:39;1.90;;;1.20;;
14092;SDS011;7123;49.468;10.992;2023-11-21T04:15:06;1.90;;;1.00;;
14092;SDS011;7123;49.468;10.992;2023-11-21T04:17:35;4.10;;;1.37;;
14092;SDS011;7123;49.468;10.992;2023-11-21T04:20:03;2.90;;;1.23;;
14092;SDS011;7123;49.468;10.992;2023-11-21T04:22:36;3.27;;;1.30;;
14092;SDS011;7123;49.468;10.992;2023-11-21T04:25:10;1.27;;;1.10;;
14092;SDS011;7123;49.468;10.992;2023-11-21T04:27:41;2.73;;;1.20;;
14092;SDS011;7123;49.468;10.992;2023-11-21T04:30:11;2.63;;;1.10;;
14092;SDS011;7123;49.468;10.992;2023-11-21T04:32:39;4.17;;;1.50;;
14092;SDS011;7123;49.468;10.992;2023-11-21T04:35:08;4.30;;;1.67;;
14092;SDS011;7123;49.468;10.992;2023-11-21T04:37:35;1.93;;;1.37;;
14092;SDS011;7123;49.468;10.992;2023-11-21T04:40:02;1.53;;;1.20;;
14092;SDS011;7123;49.468;10.992;2023-11-21T04:42:34;1.30;;;1.20;;
14092;SDS011;7123;49.468;10.992;2023-11-21T04:45:02;3.87;;;1.23;;
14092;SDS011;7123;49.468;10.992;2023-11-21T04:47:36;1.50;;;1.20;;
14092;SDS011;7123;49.468;10.992;2023-11-21T04:50:03;2.63;;;1.50;;
14092;SDS011;7123;49.468;10.992;2023-11-21T04:52:31;2.93;;;1.37;;
14092;SDS011;7123;49.468;10.992;2023-11-21T04:54:59;2.00;;;1.30;;
14092;SDS011;7123;49.468;10.992;2023-11-21T04:57:28;2.17;;;1.50;;
14092;SDS011;7123;49.468;10.992;2023-11-21T04:59:54;3.50;;;1.53;;
14092;SDS011;7123;49.468;10.992;2023-11-21T05:02:21;1.47;;;1.37;;
14092;SDS011;7123;49.468;10.992;2023-11-21T05:05:01;4.50;;;1.50;;
14092;SDS011;7123;49.468;10.992;2023-11-21T05:07:28;1.43;;;1.00;;
14092;SDS011;7123;49.468;10.992;2023-11-21T05:09:58;2.37;;;1.40;;
14092;SDS011;7123;49.468;10.992;2023-11-21T05:12:24;4.03;;;1.60;;
14092;SDS011;7123;49.468;10.992;2023-11-21T05:14:51;1.33;;;1.20;;
14092;SDS011;7123;49.468;10.992;2023-11-21T05:17:18;2.73;;;1.37;;
14092;SDS011;7123;49.468;10.992;2023-11-21T05:19:45;2.30;;;1.43;;
14092;SDS011;7123;49.468;10.992;2023-11-21T05:22:15;2.17;;;1.60;;
14092;SDS011;7123;49.468;10.992;2023-11-21T05:24:42;2.73;;;1.70;;
14092;SDS011;7123;49.468;10.992;2023-11-21T05:27:09;4.07;;;1.43;;
14092;SDS011;7123;49.468;10.992;2023-11-21T05:29:36;2.80;;;1.30;;
14092;SDS011;7123;49.468;10.992;2023-11-21T05:32:04;2.33;;;1.50;;
14092;SDS011;7123;49.468;10.992;2023-11-21T05:34:31;2.53;;;1.50;;
14092;SDS011;7123;49.468;10.992;2023-11-21T05:36:58;1.97;;;1.50;;
14092;SDS011;7123;49.468;10.992;2023-11-21T05:39:25;3.50;;;1.57;;
14092;SDS011;7123;49.468;10.992;2023-11-21T05:41:51;3.90;;;1.37;;
14092;SDS011;7123;49.468;10.992;2023-11-21T05:44:18;1.73;;;1.57;;
14092;SDS011;7123;49.468;10.992;2023-11-21T05:46:45;1.57;;;1.43;;
14092;SDS011;7123;49.468;10.992;2023-11-21T05:49:12;1.60;;;1.30;;
14092;SDS011;7123;49.468;10.992;2023-11-21T05:51:38;3.87;;;1.50;;
14092;SDS011;7123;49.468;10.992;2023-11-21T05:54:06;1.37;;;1.27;;
14092;SDS011;7123;49.468;10.992;2023-11-21T05:56:32;1.53;;;1.43;;
14092;SDS011;7123;49.468;10.992;2023-11-21T05:58:59;1.73;;;1.63;;
14092;SDS011;7123;49.468;10.992;2023-11-21T06:01:27;3.17;;;1.43;;
14092;SDS011;7123;49.468;10.992;2023-11-21T06:03:56;3.00;;;1.53;;
14092;SDS011;7123;49.468;10.992;2023-11-21T06:06:23;3.77;;;1.27;;
14092;SDS011;7123;49.468;10.992;2023-11-21T06:08:50;1.63;;;1.40;;
14092;SDS011;7123;49.468;10.992;2023-11-21T06:11:18;1.83;;;1.40;;
14092;SDS011;7123;49.468;10.992;2023-11-21T06:13:44;1.93;;;1.73;;
14092;SDS011;7123;49.468;10.992;2023-11-21T06:16:11;2.43;;;1.30;;
14092;SDS011;7123;49.468;10.992;2023-11-21T06:18:42;2.60;;;1.50;;
14092;SDS011;7123;49.468;10.992;2023-11-21T06:21:10;1.50;;;1.40;;
14092;SDS011;7123;49.468;10.992;2023-11-21T06:23:37;1.50;;;1.40;;
14092;SDS011;7123;49.468;10.992;2023-11-21T06:26:04;3.87;;;1.70;;
14092;SDS011;7123;49.468;10.992;2023-11-21T06:28:31;4.77;;;1.50;;
14092;SDS011;7123;49.468;10.992;2023-11-21T06:30:58;2.27;;;1.60;;
14092;SDS011;7123;49.468;10.992;2023-11-21T06:33:31;3.47;;;1.80;;
14092;SDS011;7123;49.468;10.992;2023-11-21T06:35:58;2.43;;;1.90;;
14092;SDS011;7123;49.468;10.992;2023-11-21T06:38:26;4.43;;;2.00;;
14092;SDS011;7123;49.468;10.992;2023-11-21T06:40:56;2.77;;;1.73;;
14092;SDS011;7123;49.468;10.992;2023-11-21T06:43:24;3.53;;;1.70;;
14092;SDS011;7123;49.468;10.992;2023-11-21T06:45:51;2.53;;;1.83;;
14092;SDS011;7123;49.468;10.992;2023-11-21T06:48:18;1.73;;;1.63;;
14092;SDS011;7123;49.468;10.992;2023-11-21T06:50:45;2.57;;;2.27;;
14092;SDS011;7123;49.468;10.992;2023-11-21T06:53:12;2.43;;;1.70;;
14092;SDS011;7123;49.468;10.992;2023-11-21T06:55:39;2.47;;;2.27;;
14092;SDS011;7123;49.468;10.992;2023-11-21T06:58:06;3.57;;;2.57;;
14092;SDS011;7123;49.468;10.992;2023-11-21T07:00:33;3.30;;;1.87;;
14092;SDS011;7123;49.468;10.992;2023-11-21T07:03:00;2.67;;;2.10;;
14092;SDS011;7123;49.468;10.992;2023-11-21T07:05:27;2.27;;;2.10;;
14092;SDS011;7123;49.468;10.992;2023-11-21T07:07:53;5.10;;;2.40;;
14092;SDS011;7123;49.468;10.992;2023-11-21T07:10:20;2.70;;;2.20;;
14092;SDS011;7123;49.468;10.992;2023-11-21T07:12:47;3.03;;;2.10;;
14092;SDS011;7123;49.468;10.992;2023-11-21T07:15:14;3.33;;;2.10;;
14092;SDS011;7123;49.468;10.992;2023-11-21T07:17:41;6.57;;;2.33;;
14092;SDS011;7123;49.468;10.992;2023-11-21T07:20:08;2.93;;;2.13;;
14092;SDS011;7123;49.468;10.992;2023-11-21T07:22:35;3.27;;;2.37;;
14092;SDS011;7123;49.468;10.992;2023-11-21T07:25:01;2.37;;;2.03;;
14092;SDS011;7123;49.468;10.992;2023-11-21T07:27:28;3.53;;;2.07;;
14092;SDS011;7123;49.468;10.992;2023-11-21T07:29:55;3.43;;;2.47;;
14092;SDS011;7123;49.468;10.992;2023-11-21T07:32:22;2.83;;;2.27;;
14092;SDS011;7123;49.468;10.992;2023-11-21T07:34:48;3.43;;;2.73;;
14092;SDS011;7123;49.468;10.992;2023-11-21T07:37:15;2.73;;;2.40;;
14092;SDS011;7123;49.468;10.992;2023-11-21T07:39:42;3.87;;;2.93;;
14092;SDS011;7123;49.468;10.992;2023-11-21T07:42:10;2.70;;;2.27;;
14092;SDS011;7123;49.468;10.992;2023-11-21T07:44:37;3.00;;;2.70;;
14092;SDS011;7123;49.468;10.992;2023-11-21T07:47:04;3.07;;;2.80;;
14092;SDS011;7123;49.468;10.992;2023-11-21T07:49:31;2.03;;;1.93;;
14092;SDS011;7123;49.468;10.992;2023-11-21T07:51:58;2.93;;;2.60;;
14092;SDS011;7123;49.468;10.992;2023-11-21T07:54:25;2.90;;;2.53;;
14092;SDS011;7123;49.468;10.992;2023-11-21T07:56:51;3.30;;;2.67;;
14092;SDS011;7123;49.468;10.992;2023-11-21T07:59:18;4.90;;;2.50;;
14092;SDS011;7123;49.468;10.992;2023-11-21T08:01:45;4.30;;;2.60;;
14092;SDS011;7123;49.468;10.992;2023-11-21T08:04:12;3.37;;;2.80;;
14092;SDS011;7123;49.468;10.992;2023-11-21T08:06:39;4.03;;;2.40;;
14092;SDS011;7123;49.468;10.992;2023-11-21T08:09:07;3.60;;;2.50;;
14092;SDS011;7123;49.468;10.992;2023-11-21T08:11:34;2.73;;;2.47;;
14092;SDS011;7123;49.468;10.992;2023-11-21T08:14:01;3.43;;;2.37;;
14092;SDS011;7123;49.468;10.992;2023-11-21T08:16:28;4.10;;;3.10;;
14092;SDS011;7123;49.468;10.992;2023-11-21T08:18:55;3.90;;;2.63;;
14092;SDS011;7123;49.468;10.992;2023-11-21T08:21:22;2.50;;;2.30;;
14092;SDS011;7123;49.468;10.992;2023-11-21T08:23:53;2.83;;;2.63;;
14092;SDS011;7123;49.468;10.992;2023-11-21T08:26:21;3.50;;;2.90;;
14092;SDS011;7123;49.468;10.992;2023-11-21T08:28:48;3.50;;;2.97;;
14092;SDS011;7123;49.468;10.992;2023-11-21T08:31:15;9.93;;;6.07;;
14092;SDS011;7123;49.468;10.992;2023-11-21T08:33:42;6.50;;;5.50;;
14092;SDS011;7123;49.468;10.992;2023-11-21T08:36:09;7.33;;;3.97;;
14092;SDS011;7123;49.468;10.992;2023-11-21T08:38:38;5.13;;;3.40;;
14092;SDS011;7123;49.468;10.992;2023-11-21T08:41:05;5.43;;;4.00;;
14092;SDS011;7123;49.468;10.992;2023-11-21T08:43:37;4.60;;;4.10;;
14092;SDS011;7123;49.468;10.992;2023-11-21T08:46:06;5.43;;;3.77;;
14092;SDS011;7123;49.468;10.992;2023-11-21T08:48:35;3.80;;;3.50;;
14092;SDS011;7123;49.468;10.992;2023-11-21T08:51:03;5.17;;;3.50;;
14092;SDS011;7123;49.468;10.992;2023-11-21T08:53:30;4.13;;;3.60;;
14092;SDS011;7123;49.468;10.992;2023-11-21T08:55:57;5.63;;;3.43;;
14092;SDS011;7123;49.468;10.992;2023-11-21T08:58:26;3.90;;;3.60;;
14092;SDS011;7123;49.468;10.992;2023-11-21T09:00:53;3.67;;;3.47;;
14092;SDS011;7123;49.468;10.992;2023-11-21T09:03:19;4.33;;;3.83;;
14092;SDS011;7123;49.468;10.992;2023-11-21T09:05:46;5.07;;;3.93;;
14092;SDS011;7123;49.468;10.992;2023-11-21T09:08:13;5.87;;;3.80;;
14092;SDS011;7123;49.468;10.992;2023-11-21T09:10:40;6.47;;;4.30;;
14092;SDS011;7123;49.468;10.992;2023-11-21T09:13:09;4.30;;;3.90;;
14092;SDS011;7123;49.468;10.992;2023-11-21T09:15:36;6.33;;;4.33;;
14092;SDS011;7123;49.468;10.992;2023-11-21T09:18:03;5.03;;;4.40;;
14092;SDS011;7123;49.468;10.992;2023-11-21T09:20:31;5.10;;;3.93;;
14092;SDS011;7123;49.468;10.992;2023-11-21T09:22:58;7.00;;;4.60;;
14092;SDS011;7123;49.468;10.992;2023-11-21T09:25:25;4.70;;;4.27;;
14092;SDS011;7123;49.468;10.992;2023-11-21T09:27:51;5.33;;;4.50;;
14092;SDS011;7123;49.468;10.992;2023-11-21T09:30:18;5.20;;;4.70;;
14092;SDS011;7123;49.468;10.992;2023-11-21T09:32:46;5.87;;;4.70;;
14092;SDS011;7123;49.468;10.992;2023-11-21T09:35:13;5.73;;;4.50;;
14092;SDS011;7123;49.468;10.992;2023-11-21T09:37:41;3.60;;;3.27;;
14092;SDS011;7123;49.468;10.992;2023-11-21T09:40:10;3.67;;;3.07;;
14092;SDS011;7123;49.468;10.992;2023-11-21T09:42:40;5.33;;;4.80;;
14092;SDS011;7123;49.468;10.992;2023-11-21T09:45:21;5.17;;;4.07;;
14092;SDS011;7123;49.468;10.992;2023-11-21T09:47:52;4.90;;;3.40;;
14092;SDS011;7123;49.468;10.992;2023-11-21T09:50:22;4.73;;;3.80;;
14092;SDS011;7123;49.468;10.992;2023-11-21T09:55:42;6.70;;;5.77;;
14092;SDS011;7123;49.468;10.992;2023-11-21T09:58:10;7.17;;;4.70;;
14092;SDS011;7123;49.468;10.992;2023-11-21T10:00:44;4.13;;;3.73;;
14092;SDS011;7123;49.468;10.992;2023-11-21T10:03:12;3.87;;;3.57;;
14092;SDS011;7123;49.468;10.992;2023-11-21T10:05:40;2.43;;;2.23;;
14092;SDS011;7123;49.468;10.992;2023-11-21T10:08:09;5.13;;;3.90;;
14092;SDS011;7123;49.468;10.992;2023-11-21T10:10:37;5.10;;;4.10;;
14092;SDS011;7123;49.468;10.992;2023-11-21T10:13:12;4.43;;;4.03;;
14092;SDS011;7123;49.468;10.992;2023-11-21T10:15:43;4.30;;;4.00;;
14092;SDS011;7123;49.468;10.992;2023-11-21T10:18:15;5.40;;;4.30;;
14092;SDS011;7123;49.468;10.992;2023-11-21T10:20:42;5.47;;;4.20;;
14092;SDS011;7123;49.468;10.992;2023-11-21T10:23:13;5.20;;;4.40;;
14092;SDS011;7123;49.468;10.992;2023-11-21T10:25:42;6.47;;;4.30;;
14092;SDS011;7123;49.468;10.992;2023-11-21T10:28:09;10.13;;;4.83;;
14092;SDS011;7123;49.468;10.992;2023-11-21T10:30:37;6.33;;;4.57;;
14092;SDS011;7123;49.468;10.992;2023-11-21T10:33:05;4.90;;;4.50;;
14092;SDS011;7123;49.468;10.992;2023-11-21T10:35:38;5.80;;;4.13;;
14092;SDS011;7123;49.468;10.992;2023-11-21T10:38:06;7.17;;;4.10;;
14092;SDS011;7123;49.468;10.992;2023-11-21T10:40:39;5.40;;;4.53;;
14092;SDS011;7123;49.468;10.992;2023-11-21T10:43:13;6.00;;;5.40;;
14092;SDS011;7123;49.468;10.992;2023-11-21T10:45:41;5.20;;;4.70;;
14092;SDS011;7123;49.468;10.992;2023-11-21T10:48:09;5.63;;;5.13;;
14092;SDS011;7123;49.468;10.992;2023-11-21T10:50:41;5.57;;;4.30;;
14092;SDS011;7123;49.468;10.992;2023-11-21T10:53:09;5.90;;;4.57;;
14092;SDS011;7123;49.468;10.992;2023-11-21T10:55:38;6.93;;;5.07;;
14092;SDS011;7123;49.468;10.992;2023-11-21T10:58:04;5.23;;;4.50;;
14092;SDS011;7123;49.468;10.992;2023-11-21T11:00:32;5.50;;;4.90;;
14092;SDS011;7123;49.468;10.992;2023-11-21T11:03:00;5.33;;;4.93;;
14092;SDS011;7123;49.468;10.992;2023-11-21T11:05:29;5.20;;;4.70;;
14092;SDS011;7123;49.468;10.992;2023-11-21T11:07:59;5.27;;;3.93;;
14092;SDS011;7123;49.468;10.992;2023-11-21T11:10:30;5.17;;;4.67;;
14092;SDS011;7123;49.468;10.992;2023-11-21T11:12:58;5.40;;;4.77;;
14092;SDS011;7123;49.468;10.992;2023-11-21T11:15:25;4.50;;;4.10;;
14092;SDS011;7123;49.468;10.992;2023-11-21T11:17:53;4.93;;;3.97;;
14092;SDS011;7123;49.468;10.992;2023-11-21T11:20:31;5.23;;;4.30;;
14092;SDS011;7123;49.468;10.992;2023-11-21T11:25:44;7.30;;;4.40;;
14092;SDS011;7123;49.468;10.992;2023-11-21T11:28:31;5.90;;;4.17;;
14092;SDS011;7123;49.468;10.992;2023-11-21T11:31:14;5.73;;;4.07;;
14092;SDS011;7123;49.468;10.992;2023-11-21T11:35:04;5.33;;;4.30;;
14092;SDS011;7123;49.468;10.992;2023-11-21T11:37:04;4.00;;;3.60;;
14092;SDS011;7123;49.468;10.992;2023-11-21T11:39:36;4.90;;;3.63;;
14092;SDS011;7123;49.468;10.992;2023-11-21T11:42:14;4.27;;;3.93;;
14092;SDS011;7123;49.468;10.992;2023-11-21T11:47:23;3.73;;;3.43;;
14092;SDS011;7123;49.468;10.992;2023-11-21T11:52:44;3.90;;;3.50;;
14092;SDS011;7123;49.468;10.992;2023-11-21T11:55:12;3.90;;;3.60;;
14092;SDS011;7123;49.468;10.992;2023-11-21T11:57:41;3.70;;;3.40;;
14092;SDS011;7123;49.468;10.992;2023-11-21T12:00:12;6.23;;;4.00;;
14092;SDS011;7123;49.468;10.992;2023-11-21T12:02:52;3.80;;;3.57;;
14092;SDS011;7123;49.468;10.992;2023-11-21T12:05:29;4.80;;;4.40;;
14092;SDS011;7123;49.468;10.992;2023-11-21T12:08:00;4.87;;;4.33;;
14092;SDS011;7123;49.468;10.992;2023-11-21T12:10:35;5.33;;;4.10;;
14092;SDS011;7123;49.468;10.992;2023-11-21T12:13:05;4.97;;;4.30;;
14092;SDS011;7123;49.468;10.992;2023-11-21T12:15:38;5.43;;;4.50;;
14092;SDS011;7123;49.468;10.992;2023-11-21T12:18:07;6.90;;;4.50;;
14092;SDS011;7123;49.468;10.992;2023-11-21T12:20:34;4.60;;;4.20;;
14092;SDS011;7123;49.468;10.992;2023-11-21T12:23:07;4.17;;;3.67;;
14092;SDS011;7123;49.468;10.992;2023-11-21T12:25:38;5.13;;;4.00;;
14092;SDS011;7123;49.468;10.992;2023-11-21T12:28:08;5.57;;;4.10;;
14092;SDS011;7123;49.468;10.992;2023-11-21T12:30:35;6.03;;;3.80;;
14092;SDS011;7123;49.468;10.992;2023-11-21T12:33:04;4.63;;;3.53;;
14092;SDS011;7123;49.468;10.992;2023-11-21T12:35:33;5.30;;;3.53;;
14092;SDS011;7123;49.468;10.992;2023-11-21T12:38:02;4.10;;;3.70;;
14092;SDS011;7123;49.468;10.992;2023-11-21T12:40:29;4.27;;;3.60;;
14092;SDS011;7123;49.468;10.992;2023-11-21T12:42:57;3.87;;;3.33;;
14092;SDS011;7123;49.468;10.992;2023-11-21T12:45:27;4.53;;;3.07;;
14092;SDS011;7123;49.468;10.992;2023-11-21T12:50:26;4.30;;;3.70;;
14092;SDS011;7123;49.468;10.992;2023-11-21T12:52:58;3.33;;;3.03;;
14092;SDS011;7123;49.468;10.992;2023-11-21T12:55:29;5.13;;;3.37;;
14092;SDS011;7123;49.468;10.992;2023-11-21T12:58:04;3.00;;;2.80;;
14092;SDS011;7123;49.468;10.992;2023-11-21T13:00:38;3.83;;;3.40;;
14092;SDS011;7123;49.468;10.992;2023-11-21T13:03:08;8.50;;;3.67;;
14092;SDS011;7123;49.468;10.992;2023-11-21T13:05:39;3.80;;;3.13;;
14092;SDS011;7123;49.468;10.992;2023-11-21T13:08:14;4.43;;;3.67;;
14092;SDS011;7123;49.468;10.992;2023-11-21T13:10:46;4.87;;;4.03;;
14092;SDS011;7123;49.468;10.992;2023-11-21T13:13:14;3.60;;;3.30;;
14092;SDS011;7123;49.468;10.992;2023-11-21T13:15:54;4.73;;;3.67;;
14092;SDS011;7123;49.468;10.992;2023-11-21T13:18:27;5.80;;;4.10;;
14092;SDS011;7123;49.468;10.992;2023-11-21T13:20:59;4.77;;;3.50;;
14092;SDS011;7123;49.468;10.992;2023-11-21T13:23:34;6.53;;;4.37;;
14092;SDS011;7123;49.468;10.992;2023-11-21T13:26:02;7.07;;;4.40;;
14092;SDS011;7123;49.468;10.992;2023-11-21T13:28:33;4.67;;;2.80;;
14092;SDS011;7123;49.468;10.992;2023-11-21T13:31:01;3.40;;;3.10;;
14092;SDS011;7123;49.468;10.992;2023-11-21T13:33:57;3.97;;;2.50;;
14092;SDS011;7123;49.468;10.992;2023-11-21T13:36:31;3.70;;;2.57;;
14092;SDS011;7123;49.468;10.992;2023-11-21T13:39:01;4.07;;;2.30;;
14092;SDS011;7123;49.468;10.992;2023-11-21T13:41:33;3.83;;;2.47;;
14092;SDS011;7123;49.468;10.992;2023-11-21T13:44:01;2.70;;;2.50;;
14092;SDS011;7123;49.468;10.992;2023-11-21T13:46:53;3.00;;;2.37;;
14092;SDS011;7123;49.468;10.992;2023-11-21T13:49:19;2.90;;;2.20;;
14092;SDS011;7123;49.468;10.992;2023-11-21T13:51:47;6.63;;;4.30;;
14092;SDS011;7123;49.468;10.992;2023-11-21T13:54:18;3.97;;;3.13;;
14092;SDS011;7123;49.468;10.992;2023-11-21T13:56:46;3.93;;;3.50;;
14092;SDS011;7123;49.468;10.992;2023-11-21T13:59:13;6.17;;;3.47;;
14092;SDS011;7123;49.468;10.992;2023-11-21T14:01:48;4.73;;;3.20;;
14092;SDS011;7123;49.468;10.992;2023-11-21T14:04:23;3.77;;;3.10;;
14092;SDS011;7123;49.468;10.992;2023-11-21T14:07:05;3.50;;;2.73;;
14092;SDS011;7123;49.468;10.992;2023-11-21T14:09:53;7.87;;;3.40;;
14092;SDS011;7123;49.468;10.992;2023-11-21T14:12:19;3.40;;;2.57;;
14092;SDS011;7123;49.468;10.992;2023-11-21T14:14:46;5.03;;;2.77;;
14092;SDS011;7123;49.468;10.992;2023-11-21T14:17:14;2.63;;;2.40;;
14092;SDS011;7123;49.468;10.992;2023-11-21T14:19:40;2.67;;;2.27;;
14092;SDS011;7123;49.468;10.992;2023-11-21T14:22:10;3.60;;;2.60;;
14092;SDS011;7123;49.468;10.992;2023-11-21T14:24:37;2.67;;;2.20;;
14092;SDS011;7123;49.468;10.992;2023-11-21T14:27:10;5.17;;;2.30;;
14092;SDS011;7123;49.468;10.992;2023-11-21T14:29:37;5.20;;;2.47;;
14092;SDS011;7123;49.468;10.992;2023-11-21T14:32:06;4.03;;;2.60;;
14092;SDS011;7123;49.468;10.992;2023-11-21T14:34:34;3.13;;;2.10;;
14092;SDS011;7123;49.468;10.992;2023-11-21T14:37:01;2.40;;;2.20;;
14092;SDS011;7123;49.468;10.992;2023-11-21T14:39:29;2.93;;;1.70;;
14092;SDS011;7123;49.468;10.992;2023-11-21T14:41:56;3.97;;;1.90;;
14092;SDS011;7123;49.468;10.992;2023-11-21T14:44:24;4.53;;;2.23;;
14092;SDS011;7123;49.468;10.992;2023-11-21T14:46:54;4.93;;;2.83;;
14092;SDS011;7123;49.468;10.992;2023-11-21T14:49:24;4.47;;;2.10;;
14092;SDS011;7123;49.468;10.992;2023-11-21T14:51:54;4.37;;;1.97;;
14092;SDS011;7123;49.468;10.992;2023-11-21T14:54:31;7.30;;;2.40;;
14092;SDS011;7123;49.468;10.992;2023-11-21T14:57:12;3.83;;;2.40;;
14092;SDS011;7123;49.468;10.992;2023-11-21T14:59:46;3.53;;;2.20;;
14092;SDS011;7123;49.468;10.992;2023-11-21T15:02:18;6.13;;;2.20;;
14092;SDS011;7123;49.468;10.992;2023-11-21T15:05:10;9.17;;;2.87;;
14092;SDS011;7123;49.468;10.992;2023-11-21T15:07:43;2.80;;;2.40;;
14092;SDS011;7123;49.468;10.992;2023-11-21T15:10:12;3.67;;;2.13;;
14092;SDS011;7123;49.468;10.992;2023-11-21T15:12:42;6.87;;;3.03;;